Skip Navigation Links
NOAA logo - Click to go to the NOAA homepage
NOAA's National Weather Service
Alaska Aviation Weather Unit
  NWS logo - Click to go to the NWS homepage
Left Navbar Graphic     22 AKDT = 06 GMT

   
NOAA is celebrating 200 years of science, service, and stewardship. Visit the NOAA 200th celebration Web site to learn more.
USA.gov is the U.S. Government's official Web portal to all Federal, state and local government Web resources and services.
Facebook
NWS on Facebook

Important Change Regarding the AAWU Web Presence

 

Over the last several months, the AAWU has been working to navigate its webpages to a nationally supported server. Security, as well as other needs, have necessitated the change.  We have been given an extension for the site changeover while we diligently work at addressing feedback received. As of July 14, 2017, aawu.arh.noaa.gov will be discontinued. The new AAWU web address is weather.gov/aawu. It is now live and will run in-parallel with the old site until it is discontinued on July 14, 2017. Please continue to send any feedback or questions regarding the new webpages to nws.ar.aawu.webauthors@noaa.gov.  Thank you for your patience during this time of transition.
AAWU Home :: Display TAF Add Bookmark
TAF CYDA 252341Z 2600/2603 24006KT P6SM SCT050 BKN180 TEMPO 2600/2603
     BKN050 OVC180
    RMK NXT FCST WILL BE ISSUED AT 261445Z=

METAR CYDA 260000Z 26005KT 20SM VCSH FEW055TCU BKN150 BKN210 23/10 A2984 RMK TCU2AC3CI1 FU VCSH SW SLP111 DENSITY ALT 2600FT= METAR CYDA 260100Z 26005KT 230V310 20SM VCSH SCT055TCU BKN150 BKN200 BKN220 22/10 A2982 RMK TCU3AC2CC1CI1 SLP108 DENSITY ALT 2500FT= METAR CYDA 260200Z 26004KT 220V310 20SM VCSH FEW055TCU BKN150 BKN200 BKN220 22/10 A2981 RMK TCU2AC3CC1CI1 SLP102 DENSITY ALT 2400FT= METAR CYDA 260300Z VRB02KT 20SM FEW060TCU SCT090 BKN110 BKN200 22/10 A2980 RMK TCU1AC2AC3CC1 CLIMAT 24.0/13.1/0.0 LAST STFD OBS/NEXT 261300 Z SLP098 DENSITY ALT 2500FT=
 Alaska TAF Map

NOAA's National Weather Service
Alaska Aviation Weather Unit
6930 Sand Lake Road
Anchorage, AK 99502-1845
Disclaimer
Credits
Glossary
Privacy Policy
About Us
Career Opportunities
Contact AAWU Internet Services Site last modified: April, 17th 2012